sensor_id;sensor_type;location;lat;lon;timestamp;P1;durP1;ratioP1;P2;durP2;ratioP2
6537;SDS011;3302;52.508;13.454;2023-07-02T00:01:43;1.60;;;1.50;;
6537;SDS011;3302;52.508;13.454;2023-07-02T00:04:09;2.10;;;1.90;;
6537;SDS011;3302;52.508;13.454;2023-07-02T00:06:35;2.20;;;1.77;;
6537;SDS011;3302;52.508;13.454;2023-07-02T00:09:08;2.30;;;1.90;;
6537;SDS011;3302;52.508;13.454;2023-07-02T00:11:40;1.97;;;1.73;;
6537;SDS011;3302;52.508;13.454;2023-07-02T00:14:08;2.07;;;1.63;;
6537;SDS011;3302;52.508;13.454;2023-07-02T00:16:35;2.60;;;2.40;;
6537;SDS011;3302;52.508;13.454;2023-07-02T00:19:03;2.30;;;2.10;;
6537;SDS011;3302;52.508;13.454;2023-07-02T00:21:28;1.80;;;1.57;;
6537;SDS011;3302;52.508;13.454;2023-07-02T00:23:55;2.63;;;2.43;;
6537;SDS011;3302;52.508;13.454;2023-07-02T00:26:26;3.33;;;2.10;;
6537;SDS011;3302;52.508;13.454;2023-07-02T00:28:53;3.93;;;1.97;;
6537;SDS011;3302;52.508;13.454;2023-07-02T00:31:20;2.13;;;1.93;;
6537;SDS011;3302;52.508;13.454;2023-07-02T00:33:46;2.70;;;2.33;;
6537;SDS011;3302;52.508;13.454;2023-07-02T00:36:12;2.13;;;1.93;;
6537;SDS011;3302;52.508;13.454;2023-07-02T00:38:42;2.00;;;1.90;;
6537;SDS011;3302;52.508;13.454;2023-07-02T00:41:10;3.97;;;1.93;;
6537;SDS011;3302;52.508;13.454;2023-07-02T00:43:36;1.83;;;1.73;;
6537;SDS011;3302;52.508;13.454;2023-07-02T00:46:08;1.97;;;1.80;;
6537;SDS011;3302;52.508;13.454;2023-07-02T00:48:47;2.40;;;2.20;;
6537;SDS011;3302;52.508;13.454;2023-07-02T00:51:15;3.00;;;2.70;;
6537;SDS011;3302;52.508;13.454;2023-07-02T00:53:45;3.07;;;2.77;;
6537;SDS011;3302;52.508;13.454;2023-07-02T00:56:12;2.33;;;2.13;;
6537;SDS011;3302;52.508;13.454;2023-07-02T00:58:39;3.53;;;2.57;;
6537;SDS011;3302;52.508;13.454;2023-07-02T01:01:12;3.73;;;2.30;;
6537;SDS011;3302;52.508;13.454;2023-07-02T01:03:49;2.97;;;2.53;;
6537;SDS011;3302;52.508;13.454;2023-07-02T01:06:17;2.97;;;2.43;;
6537;SDS011;3302;52.508;13.454;2023-07-02T01:08:45;2.73;;;2.53;;
6537;SDS011;3302;52.508;13.454;2023-07-02T01:11:12;2.70;;;2.50;;
6537;SDS011;3302;52.508;13.454;2023-07-02T01:13:37;3.40;;;2.50;;
6537;SDS011;3302;52.508;13.454;2023-07-02T01:16:04;3.20;;;2.90;;
6537;SDS011;3302;52.508;13.454;2023-07-02T01:18:30;3.40;;;3.10;;
6537;SDS011;3302;52.508;13.454;2023-07-02T01:20:56;2.90;;;2.50;;
6537;SDS011;3302;52.508;13.454;2023-07-02T01:23:23;3.10;;;2.87;;
6537;SDS011;3302;52.508;13.454;2023-07-02T01:25:51;3.90;;;2.80;;
6537;SDS011;3302;52.508;13.454;2023-07-02T01:28:16;4.10;;;3.07;;
6537;SDS011;3302;52.508;13.454;2023-07-02T01:30:42;3.60;;;2.90;;
6537;SDS011;3302;52.508;13.454;2023-07-02T01:33:08;3.80;;;2.80;;
6537;SDS011;3302;52.508;13.454;2023-07-02T01:35:34;3.90;;;3.30;;
6537;SDS011;3302;52.508;13.454;2023-07-02T01:37:59;3.93;;;3.03;;
6537;SDS011;3302;52.508;13.454;2023-07-02T01:40:25;4.83;;;3.20;;
6537;SDS011;3302;52.508;13.454;2023-07-02T01:42:51;4.37;;;3.37;;
6537;SDS011;3302;52.508;13.454;2023-07-02T01:45:17;4.50;;;3.27;;
6537;SDS011;3302;52.508;13.454;2023-07-02T01:47:42;3.67;;;3.37;;
6537;SDS011;3302;52.508;13.454;2023-07-02T01:50:08;3.50;;;3.20;;
6537;SDS011;3302;52.508;13.454;2023-07-02T01:52:34;4.47;;;3.60;;
6537;SDS011;3302;52.508;13.454;2023-07-02T01:55:01;3.67;;;3.20;;
6537;SDS011;3302;52.508;13.454;2023-07-02T01:57:27;5.40;;;3.53;;
6537;SDS011;3302;52.508;13.454;2023-07-02T01:59:53;4.37;;;3.50;;
6537;SDS011;3302;52.508;13.454;2023-07-02T02:02:19;4.00;;;3.60;;
6537;SDS011;3302;52.508;13.454;2023-07-02T02:04:44;6.10;;;3.80;;
6537;SDS011;3302;52.508;13.454;2023-07-02T02:07:11;4.87;;;4.37;;
6537;SDS011;3302;52.508;13.454;2023-07-02T02:09:37;5.67;;;4.60;;
6537;SDS011;3302;52.508;13.454;2023-07-02T02:12:03;5.10;;;4.17;;
6537;SDS011;3302;52.508;13.454;2023-07-02T02:14:29;5.07;;;4.57;;
6537;SDS011;3302;52.508;13.454;2023-07-02T02:16:55;4.57;;;4.17;;
6537;SDS011;3302;52.508;13.454;2023-07-02T02:19:20;4.20;;;3.80;;
6537;SDS011;3302;52.508;13.454;2023-07-02T02:21:46;4.63;;;3.67;;
6537;SDS011;3302;52.508;13.454;2023-07-02T02:24:12;4.53;;;3.77;;
6537;SDS011;3302;52.508;13.454;2023-07-02T02:26:38;6.80;;;4.17;;
6537;SDS011;3302;52.508;13.454;2023-07-02T02:29:03;4.43;;;3.93;;
6537;SDS011;3302;52.508;13.454;2023-07-02T02:31:29;4.73;;;4.10;;
6537;SDS011;3302;52.508;13.454;2023-07-02T02:33:56;5.83;;;3.70;;
6537;SDS011;3302;52.508;13.454;2023-07-02T02:36:21;4.27;;;3.73;;
6537;SDS011;3302;52.508;13.454;2023-07-02T02:38:47;5.03;;;3.83;;
6537;SDS011;3302;52.508;13.454;2023-07-02T02:41:13;4.13;;;3.70;;
6537;SDS011;3302;52.508;13.454;2023-07-02T02:43:42;5.10;;;3.63;;
6537;SDS011;3302;52.508;13.454;2023-07-02T02:46:08;4.40;;;3.47;;
6537;SDS011;3302;52.508;13.454;2023-07-02T02:48:35;3.87;;;3.57;;
6537;SDS011;3302;52.508;13.454;2023-07-02T02:51:01;6.53;;;3.77;;
6537;SDS011;3302;52.508;13.454;2023-07-02T02:53:27;5.40;;;3.73;;
6537;SDS011;3302;52.508;13.454;2023-07-02T02:55:52;5.07;;;3.60;;
6537;SDS011;3302;52.508;13.454;2023-07-02T02:58:18;3.77;;;3.30;;
6537;SDS011;3302;52.508;13.454;2023-07-02T03:00:44;3.53;;;3.23;;
6537;SDS011;3302;52.508;13.454;2023-07-02T03:03:12;6.03;;;3.40;;
6537;SDS011;3302;52.508;13.454;2023-07-02T03:05:38;3.90;;;3.40;;
6537;SDS011;3302;52.508;13.454;2023-07-02T03:08:04;4.03;;;3.57;;
6537;SDS011;3302;52.508;13.454;2023-07-02T03:10:30;3.77;;;3.27;;
6537;SDS011;3302;52.508;13.454;2023-07-02T03:12:56;4.37;;;3.10;;
6537;SDS011;3302;52.508;13.454;2023-07-02T03:15:22;4.10;;;3.70;;
6537;SDS011;3302;52.508;13.454;2023-07-02T03:17:47;6.33;;;3.60;;
6537;SDS011;3302;52.508;13.454;2023-07-02T03:20:13;4.70;;;4.17;;
6537;SDS011;3302;52.508;13.454;2023-07-02T03:22:39;3.93;;;3.50;;
6537;SDS011;3302;52.508;13.454;2023-07-02T03:25:05;4.73;;;3.60;;
6537;SDS011;3302;52.508;13.454;2023-07-02T03:27:31;4.70;;;3.63;;
6537;SDS011;3302;52.508;13.454;2023-07-02T03:29:56;3.50;;;3.20;;
6537;SDS011;3302;52.508;13.454;2023-07-02T03:32:23;4.33;;;3.13;;
6537;SDS011;3302;52.508;13.454;2023-07-02T03:34:49;6.03;;;3.40;;
6537;SDS011;3302;52.508;13.454;2023-07-02T03:37:15;4.30;;;3.43;;
6537;SDS011;3302;52.508;13.454;2023-07-02T03:39:40;4.80;;;3.07;;
6537;SDS011;3302;52.508;13.454;2023-07-02T03:42:06;3.50;;;3.10;;
6537;SDS011;3302;52.508;13.454;2023-07-02T03:44:32;3.90;;;3.20;;
6537;SDS011;3302;52.508;13.454;2023-07-02T03:46:58;3.27;;;2.70;;
6537;SDS011;3302;52.508;13.454;2023-07-02T03:49:24;3.77;;;3.03;;
6537;SDS011;3302;52.508;13.454;2023-07-02T03:51:49;3.43;;;2.80;;
6537;SDS011;3302;52.508;13.454;2023-07-02T03:54:16;3.97;;;2.90;;
6537;SDS011;3302;52.508;13.454;2023-07-02T03:56:41;3.13;;;2.53;;
6537;SDS011;3302;52.508;13.454;2023-07-02T03:59:07;3.43;;;3.03;;
6537;SDS011;3302;52.508;13.454;2023-07-02T04:01:33;3.17;;;2.60;;
6537;SDS011;3302;52.508;13.454;2023-07-02T04:03:59;2.77;;;2.57;;
6537;SDS011;3302;52.508;13.454;2023-07-02T04:06:24;3.30;;;2.97;;
6537;SDS011;3302;52.508;13.454;2023-07-02T04:08:50;2.77;;;2.53;;
6537;SDS011;3302;52.508;13.454;2023-07-02T04:11:16;3.53;;;2.60;;
6537;SDS011;3302;52.508;13.454;2023-07-02T04:13:42;4.73;;;2.90;;
6537;SDS011;3302;52.508;13.454;2023-07-02T04:16:07;3.50;;;2.40;;
6537;SDS011;3302;52.508;13.454;2023-07-02T04:18:33;4.80;;;2.80;;
6537;SDS011;3302;52.508;13.454;2023-07-02T04:21:00;3.07;;;2.70;;
6537;SDS011;3302;52.508;13.454;2023-07-02T04:23:26;3.47;;;2.80;;
6537;SDS011;3302;52.508;13.454;2023-07-02T04:25:52;4.87;;;2.73;;
6537;SDS011;3302;52.508;13.454;2023-07-02T04:28:18;3.93;;;2.77;;
6537;SDS011;3302;52.508;13.454;2023-07-02T04:30:44;5.03;;;2.50;;
6537;SDS011;3302;52.508;13.454;2023-07-02T04:33:10;3.60;;;2.83;;
6537;SDS011;3302;52.508;13.454;2023-07-02T04:35:39;6.20;;;3.20;;
6537;SDS011;3302;52.508;13.454;2023-07-02T04:38:05;3.60;;;2.63;;
6537;SDS011;3302;52.508;13.454;2023-07-02T04:40:31;4.07;;;2.70;;
6537;SDS011;3302;52.508;13.454;2023-07-02T04:42:57;3.30;;;2.80;;
6537;SDS011;3302;52.508;13.454;2023-07-02T04:45:23;3.10;;;2.50;;
6537;SDS011;3302;52.508;13.454;2023-07-02T04:47:57;4.23;;;2.60;;
6537;SDS011;3302;52.508;13.454;2023-07-02T04:50:23;4.97;;;2.50;;
6537;SDS011;3302;52.508;13.454;2023-07-02T04:52:48;3.13;;;2.70;;
6537;SDS011;3302;52.508;13.454;2023-07-02T04:55:14;4.27;;;2.60;;
6537;SDS011;3302;52.508;13.454;2023-07-02T04:57:40;3.47;;;2.50;;
6537;SDS011;3302;52.508;13.454;2023-07-02T05:00:06;3.03;;;2.30;;
6537;SDS011;3302;52.508;13.454;2023-07-02T05:02:33;3.23;;;2.80;;
6537;SDS011;3302;52.508;13.454;2023-07-02T05:04:59;3.00;;;2.67;;
6537;SDS011;3302;52.508;13.454;2023-07-02T05:07:25;3.67;;;2.30;;
6537;SDS011;3302;52.508;13.454;2023-07-02T05:09:51;3.67;;;2.50;;
6537;SDS011;3302;52.508;13.454;2023-07-02T05:12:18;3.23;;;2.30;;
6537;SDS011;3302;52.508;13.454;2023-07-02T05:14:44;3.03;;;2.53;;
6537;SDS011;3302;52.508;13.454;2023-07-02T05:17:10;2.80;;;2.20;;
6537;SDS011;3302;52.508;13.454;2023-07-02T05:19:36;3.10;;;2.30;;
6537;SDS011;3302;52.508;13.454;2023-07-02T05:22:02;4.33;;;2.33;;
6537;SDS011;3302;52.508;13.454;2023-07-02T05:24:28;2.80;;;2.30;;
6537;SDS011;3302;52.508;13.454;2023-07-02T05:26:54;3.33;;;2.60;;
6537;SDS011;3302;52.508;13.454;2023-07-02T05:29:19;3.37;;;2.70;;
6537;SDS011;3302;52.508;13.454;2023-07-02T05:31:45;4.93;;;2.30;;
6537;SDS011;3302;52.508;13.454;2023-07-02T05:34:11;3.97;;;2.63;;
6537;SDS011;3302;52.508;13.454;2023-07-02T05:36:37;4.10;;;2.20;;
6537;SDS011;3302;52.508;13.454;2023-07-02T05:39:04;3.60;;;2.50;;
6537;SDS011;3302;52.508;13.454;2023-07-02T05:41:29;3.27;;;2.50;;
6537;SDS011;3302;52.508;13.454;2023-07-02T05:43:59;6.57;;;2.50;;
6537;SDS011;3302;52.508;13.454;2023-07-02T05:46:25;9.50;;;2.80;;
6537;SDS011;3302;52.508;13.454;2023-07-02T05:48:51;3.87;;;2.53;;
6537;SDS011;3302;52.508;13.454;2023-07-02T05:51:20;4.93;;;2.73;;
6537;SDS011;3302;52.508;13.454;2023-07-02T05:53:47;5.10;;;2.50;;
6537;SDS011;3302;52.508;13.454;2023-07-02T05:56:13;4.13;;;2.70;;
6537;SDS011;3302;52.508;13.454;2023-07-02T05:58:39;5.80;;;2.70;;
6537;SDS011;3302;52.508;13.454;2023-07-02T06:01:04;4.30;;;2.30;;
6537;SDS011;3302;52.508;13.454;2023-07-02T06:03:31;2.97;;;2.40;;
6537;SDS011;3302;52.508;13.454;2023-07-02T06:05:57;4.90;;;2.20;;
6537;SDS011;3302;52.508;13.454;2023-07-02T06:08:23;4.77;;;2.40;;
6537;SDS011;3302;52.508;13.454;2023-07-02T06:10:49;2.60;;;2.40;;
6537;SDS011;3302;52.508;13.454;2023-07-02T06:13:15;2.33;;;2.07;;
6537;SDS011;3302;52.508;13.454;2023-07-02T06:15:41;4.03;;;2.43;;
6537;SDS011;3302;52.508;13.454;2023-07-02T06:18:07;2.97;;;2.30;;
6537;SDS011;3302;52.508;13.454;2023-07-02T06:20:33;3.07;;;2.30;;
6537;SDS011;3302;52.508;13.454;2023-07-02T06:22:59;4.00;;;2.40;;
6537;SDS011;3302;52.508;13.454;2023-07-02T06:25:25;7.47;;;2.23;;
6537;SDS011;3302;52.508;13.454;2023-07-02T06:27:51;3.57;;;2.23;;
6537;SDS011;3302;52.508;13.454;2023-07-02T06:30:19;3.97;;;2.40;;
6537;SDS011;3302;52.508;13.454;2023-07-02T06:32:46;4.70;;;2.57;;
6537;SDS011;3302;52.508;13.454;2023-07-02T06:35:12;4.00;;;2.60;;
6537;SDS011;3302;52.508;13.454;2023-07-02T06:37:38;3.83;;;2.60;;
6537;SDS011;3302;52.508;13.454;2023-07-02T06:40:04;4.77;;;2.30;;
6537;SDS011;3302;52.508;13.454;2023-07-02T06:42:30;6.73;;;2.30;;
6537;SDS011;3302;52.508;13.454;2023-07-02T06:44:56;4.67;;;2.33;;
6537;SDS011;3302;52.508;13.454;2023-07-02T06:47:22;2.93;;;2.37;;
6537;SDS011;3302;52.508;13.454;2023-07-02T06:49:48;3.10;;;2.50;;
6537;SDS011;3302;52.508;13.454;2023-07-02T06:52:14;4.63;;;2.60;;
6537;SDS011;3302;52.508;13.454;2023-07-02T06:54:39;3.30;;;2.37;;
6537;SDS011;3302;52.508;13.454;2023-07-02T06:57:05;2.60;;;2.20;;
6537;SDS011;3302;52.508;13.454;2023-07-02T06:59:31;6.33;;;2.80;;
6537;SDS011;3302;52.508;13.454;2023-07-02T07:01:58;4.77;;;2.20;;
6537;SDS011;3302;52.508;13.454;2023-07-02T07:04:23;3.73;;;2.70;;
6537;SDS011;3302;52.508;13.454;2023-07-02T07:06:49;4.43;;;2.50;;
6537;SDS011;3302;52.508;13.454;2023-07-02T07:09:15;5.30;;;2.33;;
6537;SDS011;3302;52.508;13.454;2023-07-02T07:11:43;2.80;;;2.20;;
6537;SDS011;3302;52.508;13.454;2023-07-02T07:14:09;3.00;;;2.20;;
6537;SDS011;3302;52.508;13.454;2023-07-02T07:16:34;4.90;;;2.17;;
6537;SDS011;3302;52.508;13.454;2023-07-02T07:19:00;3.60;;;2.23;;
6537;SDS011;3302;52.508;13.454;2023-07-02T07:21:26;2.67;;;2.13;;
6537;SDS011;3302;52.508;13.454;2023-07-02T07:23:52;3.30;;;2.40;;
6537;SDS011;3302;52.508;13.454;2023-07-02T07:26:18;4.50;;;2.50;;
6537;SDS011;3302;52.508;13.454;2023-07-02T07:28:43;3.93;;;2.50;;
6537;SDS011;3302;52.508;13.454;2023-07-02T07:31:09;4.23;;;2.13;;
6537;SDS011;3302;52.508;13.454;2023-07-02T07:33:35;4.00;;;2.40;;
6537;SDS011;3302;52.508;13.454;2023-07-02T07:36:01;2.90;;;2.17;;
6537;SDS011;3302;52.508;13.454;2023-07-02T07:38:26;6.40;;;3.30;;
6537;SDS011;3302;52.508;13.454;2023-07-02T07:40:52;3.00;;;2.60;;
6537;SDS011;3302;52.508;13.454;2023-07-02T07:43:18;3.67;;;2.80;;
6537;SDS011;3302;52.508;13.454;2023-07-02T07:45:44;5.20;;;2.20;;
6537;SDS011;3302;52.508;13.454;2023-07-02T07:48:09;3.90;;;2.60;;
6537;SDS011;3302;52.508;13.454;2023-07-02T07:50:35;2.47;;;2.20;;
6537;SDS011;3302;52.508;13.454;2023-07-02T07:53:01;3.90;;;2.20;;
6537;SDS011;3302;52.508;13.454;2023-07-02T07:55:27;4.37;;;2.37;;
6537;SDS011;3302;52.508;13.454;2023-07-02T07:57:53;3.83;;;2.30;;
6537;SDS011;3302;52.508;13.454;2023-07-02T08:00:18;3.03;;;2.37;;
6537;SDS011;3302;52.508;13.454;2023-07-02T08:02:45;4.90;;;2.40;;
6537;SDS011;3302;52.508;13.454;2023-07-02T08:05:14;3.00;;;2.37;;
6537;SDS011;3302;52.508;13.454;2023-07-02T08:07:40;3.07;;;2.33;;
6537;SDS011;3302;52.508;13.454;2023-07-02T08:10:06;4.53;;;2.73;;
6537;SDS011;3302;52.508;13.454;2023-07-02T08:12:35;5.53;;;2.57;;
6537;SDS011;3302;52.508;13.454;2023-07-02T08:15:01;2.97;;;2.40;;
6537;SDS011;3302;52.508;13.454;2023-07-02T08:17:27;2.73;;;2.43;;
6537;SDS011;3302;52.508;13.454;2023-07-02T08:19:53;5.07;;;2.60;;
6537;SDS011;3302;52.508;13.454;2023-07-02T08:22:18;5.73;;;2.37;;
6537;SDS011;3302;52.508;13.454;2023-07-02T08:24:44;2.93;;;2.47;;
6537;SDS011;3302;52.508;13.454;2023-07-02T08:27:10;3.87;;;2.20;;
6537;SDS011;3302;52.508;13.454;2023-07-02T08:29:39;4.13;;;2.33;;
6537;SDS011;3302;52.508;13.454;2023-07-02T08:32:04;2.40;;;2.10;;
6537;SDS011;3302;52.508;13.454;2023-07-02T08:34:30;3.00;;;2.67;;
6537;SDS011;3302;52.508;13.454;2023-07-02T08:36:56;3.33;;;2.40;;
6537;SDS011;3302;52.508;13.454;2023-07-02T08:39:22;5.60;;;2.90;;
6537;SDS011;3302;52.508;13.454;2023-07-02T08:41:48;3.60;;;2.60;;
6537;SDS011;3302;52.508;13.454;2023-07-02T08:44:14;4.13;;;2.83;;
6537;SDS011;3302;52.508;13.454;2023-07-02T08:46:43;3.10;;;2.70;;
6537;SDS011;3302;52.508;13.454;2023-07-02T08:49:09;3.27;;;2.73;;
6537;SDS011;3302;52.508;13.454;2023-07-02T08:51:35;4.50;;;3.00;;
6537;SDS011;3302;52.508;13.454;2023-07-02T08:54:01;5.17;;;2.83;;
6537;SDS011;3302;52.508;13.454;2023-07-02T08:56:28;4.73;;;2.67;;
6537;SDS011;3302;52.508;13.454;2023-07-02T08:58:54;7.27;;;3.60;;
6537;SDS011;3302;52.508;13.454;2023-07-02T09:01:20;6.03;;;3.40;;
6537;SDS011;3302;52.508;13.454;2023-07-02T09:03:46;5.67;;;3.20;;
6537;SDS011;3302;52.508;13.454;2023-07-02T09:06:16;4.77;;;2.87;;
6537;SDS011;3302;52.508;13.454;2023-07-02T09:08:43;6.43;;;3.53;;
6537;SDS011;3302;52.508;13.454;2023-07-02T09:11:09;3.87;;;2.80;;
6537;SDS011;3302;52.508;13.454;2023-07-02T09:24:26;3.47;;;2.73;;
6537;SDS011;3302;52.508;13.454;2023-07-02T09:26:53;3.83;;;3.10;;
6537;SDS011;3302;52.508;13.454;2023-07-02T09:29:27;7.00;;;3.57;;
6537;SDS011;3302;52.508;13.454;2023-07-02T09:32:00;7.47;;;3.17;;
6537;SDS011;3302;52.508;13.454;2023-07-02T09:34:28;6.73;;;3.57;;
6537;SDS011;3302;52.508;13.454;2023-07-02T09:36:54;6.27;;;4.50;;
6537;SDS011;3302;52.508;13.454;2023-07-02T09:39:25;6.20;;;4.13;;
6537;SDS011;3302;52.508;13.454;2023-07-02T09:41:56;7.67;;;3.90;;
6537;SDS011;3302;52.508;13.454;2023-07-02T09:44:26;6.83;;;4.07;;
6537;SDS011;3302;52.508;13.454;2023-07-02T09:47:03;4.93;;;3.77;;
6537;SDS011;3302;52.508;13.454;2023-07-02T09:49:37;9.07;;;3.87;;
6537;SDS011;3302;52.508;13.454;2023-07-02T09:52:08;6.37;;;3.83;;
6537;SDS011;3302;52.508;13.454;2023-07-02T09:54:35;5.60;;;3.90;;
6537;SDS011;3302;52.508;13.454;2023-07-02T09:57:02;6.43;;;3.57;;
6537;SDS011;3302;52.508;13.454;2023-07-02T09:59:29;5.90;;;3.83;;
6537;SDS011;3302;52.508;13.454;2023-07-02T10:01:55;11.50;;;4.77;;
6537;SDS011;3302;52.508;13.454;2023-07-02T10:04:22;6.70;;;3.87;;
6537;SDS011;3302;52.508;13.454;2023-07-02T10:06:52;6.40;;;4.20;;
6537;SDS011;3302;52.508;13.454;2023-07-02T10:12:24;7.20;;;4.17;;
6537;SDS011;3302;52.508;13.454;2023-07-02T10:14:56;7.47;;;4.27;;
6537;SDS011;3302;52.508;13.454;2023-07-02T10:17:33;6.47;;;4.17;;
6537;SDS011;3302;52.508;13.454;2023-07-02T10:20:02;6.23;;;4.10;;
6537;SDS011;3302;52.508;13.454;2023-07-02T10:22:46;8.33;;;4.77;;
6537;SDS011;3302;52.508;13.454;2023-07-02T10:25:23;7.47;;;4.70;;
6537;SDS011;3302;52.508;13.454;2023-07-02T10:27:50;7.87;;;4.40;;
6537;SDS011;3302;52.508;13.454;2023-07-02T10:30:16;8.00;;;4.67;;
6537;SDS011;3302;52.508;13.454;2023-07-02T10:32:41;8.30;;;4.77;;
6537;SDS011;3302;52.508;13.454;2023-07-02T10:37:42;7.33;;;4.27;;
6537;SDS011;3302;52.508;13.454;2023-07-02T10:40:08;6.93;;;4.00;;
6537;SDS011;3302;52.508;13.454;2023-07-02T10:42:47;8.27;;;4.93;;
6537;SDS011;3302;52.508;13.454;2023-07-02T10:45:14;9.77;;;5.13;;
6537;SDS011;3302;52.508;13.454;2023-07-02T10:47:41;10.07;;;4.53;;
6537;SDS011;3302;52.508;13.454;2023-07-02T10:50:40;8.80;;;5.00;;
6537;SDS011;3302;52.508;13.454;2023-07-02T10:53:00;8.50;;;4.77;;
6537;SDS011;3302;52.508;13.454;2023-07-02T10:55:26;8.83;;;4.50;;
6537;SDS011;3302;52.508;13.454;2023-07-02T11:00:50;7.77;;;4.43;;
6537;SDS011;3302;52.508;13.454;2023-07-02T11:03:20;7.13;;;4.70;;
6537;SDS011;3302;52.508;13.454;2023-07-02T11:05:47;6.80;;;4.43;;
6537;SDS011;3302;52.508;13.454;2023-07-02T11:08:14;8.87;;;4.60;;
6537;SDS011;3302;52.508;13.454;2023-07-02T11:10:40;7.17;;;4.20;;
6537;SDS011;3302;52.508;13.454;2023-07-02T11:13:13;11.57;;;4.93;;
6537;SDS011;3302;52.508;13.454;2023-07-02T11:15:40;6.27;;;4.57;;
6537;SDS011;3302;52.508;13.454;2023-07-02T11:18:10;9.77;;;5.03;;
6537;SDS011;3302;52.508;13.454;2023-07-02T11:20:37;6.37;;;4.43;;
6537;SDS011;3302;52.508;13.454;2023-07-02T11:23:05;10.10;;;4.83;;
6537;SDS011;3302;52.508;13.454;2023-07-02T11:25:41;11.60;;;5.30;;
6537;SDS011;3302;52.508;13.454;2023-07-02T11:28:07;7.03;;;4.80;;
6537;SDS011;3302;52.508;13.454;2023-07-02T11:30:33;10.30;;;5.27;;
6537;SDS011;3302;52.508;13.454;2023-07-02T11:33:00;10.67;;;4.77;;
6537;SDS011;3302;52.508;13.454;2023-07-02T11:35:44;9.07;;;5.33;;
6537;SDS011;3302;52.508;13.454;2023-07-02T11:38:11;9.77;;;5.70;;
6537;SDS011;3302;52.508;13.454;2023-07-02T11:40:38;13.20;;;5.83;;
6537;SDS011;3302;52.508;13.454;2023-07-02T11:43:04;7.47;;;4.50;;
6537;SDS011;3302;52.508;13.454;2023-07-02T11:45:31;10.53;;;5.50;;
6537;SDS011;3302;52.508;13.454;2023-07-02T11:47:57;15.13;;;4.77;;
6537;SDS011;3302;52.508;13.454;2023-07-02T11:50:22;9.77;;;5.70;;
6537;SDS011;3302;52.508;13.454;2023-07-02T11:52:48;7.37;;;4.80;;
6537;SDS011;3302;52.508;13.454;2023-07-02T11:55:14;9.40;;;4.80;;
6537;SDS011;3302;52.508;13.454;2023-07-02T11:57:40;11.70;;;5.40;;
6537;SDS011;3302;52.508;13.454;2023-07-02T12:00:05;10.60;;;5.27;;
6537;SDS011;3302;52.508;13.454;2023-07-02T12:02:32;7.77;;;4.70;;
6537;SDS011;3302;52.508;13.454;2023-07-02T12:04:57;7.03;;;4.70;;
6537;SDS011;3302;52.508;13.454;2023-07-02T12:07:23;10.13;;;5.00;;
6537;SDS011;3302;52.508;13.454;2023-07-02T12:09:50;14.63;;;5.63;;
6537;SDS011;3302;52.508;13.454;2023-07-02T12:12:16;10.53;;;5.70;;
6537;SDS011;3302;52.508;13.454;2023-07-02T12:14:41;11.63;;;5.97;;
6537;SDS011;3302;52.508;13.454;2023-07-02T12:17:09;7.63;;;4.90;;
6537;SDS011;3302;52.508;13.454;2023-07-02T12:19:38;9.83;;;5.17;;
6537;SDS011;3302;52.508;13.454;2023-07-02T12:22:05;13.33;;;4.83;;
6537;SDS011;3302;52.508;13.454;2023-07-02T12:24:31;11.60;;;4.87;;
6537;SDS011;3302;52.508;13.454;2023-07-02T12:26:56;9.60;;;4.93;;
6537;SDS011;3302;52.508;13.454;2023-07-02T12:29:22;11.93;;;5.23;;
6537;SDS011;3302;52.508;13.454;2023-07-02T12:31:48;7.60;;;4.80;;
6537;SDS011;3302;52.508;13.454;2023-07-02T12:34:14;8.30;;;4.77;;
6537;SDS011;3302;52.508;13.454;2023-07-02T12:36:40;7.47;;;4.43;;
6537;SDS011;3302;52.508;13.454;2023-07-02T12:39:06;9.20;;;4.40;;
6537;SDS011;3302;52.508;13.454;2023-07-02T12:41:33;8.97;;;5.20;;
6537;SDS011;3302;52.508;13.454;2023-07-02T12:43:59;8.43;;;4.97;;
6537;SDS011;3302;52.508;13.454;2023-07-02T12:46:25;11.33;;;5.30;;
6537;SDS011;3302;52.508;13.454;2023-07-02T12:48:51;8.83;;;4.90;;
6537;SDS011;3302;52.508;13.454;2023-07-02T12:51:17;9.40;;;5.17;;
6537;SDS011;3302;52.508;13.454;2023-07-02T12:53:42;6.90;;;4.90;;
6537;SDS011;3302;52.508;13.454;2023-07-02T12:56:08;8.47;;;5.30;;
6537;SDS011;3302;52.508;13.454;2023-07-02T12:58:34;8.07;;;5.00;;
6537;SDS011;3302;52.508;13.454;2023-07-02T13:01:00;8.50;;;5.27;;
6537;SDS011;3302;52.508;13.454;2023-07-02T13:03:26;8.20;;;4.47;;
6537;SDS011;3302;52.508;13.454;2023-07-02T13:05:55;9.43;;;4.77;;
6537;SDS011;3302;52.508;13.454;2023-07-02T13:08:20;8.83;;;5.83;;
6537;SDS011;3302;52.508;13.454;2023-07-02T13:10:46;8.63;;;5.53;;
6537;SDS011;3302;52.508;13.454;2023-07-02T13:13:12;8.03;;;5.17;;
6537;SDS011;3302;52.508;13.454;2023-07-02T13:15:38;12.40;;;5.60;;
6537;SDS011;3302;52.508;13.454;2023-07-02T13:18:04;13.57;;;7.17;;
6537;SDS011;3302;52.508;13.454;2023-07-02T13:20:29;10.27;;;6.70;;
6537;SDS011;3302;52.508;13.454;2023-07-02T13:22:55;9.17;;;5.50;;
6537;SDS011;3302;52.508;13.454;2023-07-02T13:25:21;11.33;;;5.50;;
6537;SDS011;3302;52.508;13.454;2023-07-02T13:27:47;9.40;;;4.53;;
6537;SDS011;3302;52.508;13.454;2023-07-02T13:30:13;8.00;;;5.20;;
6537;SDS011;3302;52.508;13.454;2023-07-02T13:32:38;11.00;;;5.07;;
6537;SDS011;3302;52.508;13.454;2023-07-02T13:35:04;10.80;;;5.63;;
6537;SDS011;3302;52.508;13.454;2023-07-02T13:37:30;10.63;;;5.70;;
6537;SDS011;3302;52.508;13.454;2023-07-02T13:39:56;7.50;;;5.33;;
6537;SDS011;3302;52.508;13.454;2023-07-02T13:42:22;7.87;;;5.33;;
6537;SDS011;3302;52.508;13.454;2023-07-02T13:44:48;9.53;;;5.53;;
6537;SDS011;3302;52.508;13.454;2023-07-02T13:47:14;10.80;;;5.13;;
6537;SDS011;3302;52.508;13.454;2023-07-02T13:49:40;10.23;;;5.07;;
6537;SDS011;3302;52.508;13.454;2023-07-02T13:52:06;10.70;;;5.90;;
6537;SDS011;3302;52.508;13.454;2023-07-02T13:54:32;7.97;;;4.73;;
6537;SDS011;3302;52.508;13.454;2023-07-02T13:56:57;10.90;;;4.57;;
6537;SDS011;3302;52.508;13.454;2023-07-02T13:59:23;10.33;;;5.30;;
6537;SDS011;3302;52.508;13.454;2023-07-02T14:01:49;8.20;;;4.70;;
6537;SDS011;3302;52.508;13.454;2023-07-02T14:04:16;10.00;;;5.00;;
6537;SDS011;3302;52.508;13.454;2023-07-02T14:06:42;8.50;;;5.17;;
6537;SDS011;3302;52.508;13.454;2023-07-02T14:09:08;7.20;;;5.00;;
6537;SDS011;3302;52.508;13.454;2023-07-02T14:11:35;7.40;;;5.20;;
6537;SDS011;3302;52.508;13.454;2023-07-02T14:14:03;9.70;;;6.47;;
6537;SDS011;3302;52.508;13.454;2023-07-02T14:16:30;9.60;;;5.53;;
6537;SDS011;3302;52.508;13.454;2023-07-02T14:18:56;11.07;;;5.80;;
6537;SDS011;3302;52.508;13.454;2023-07-02T14:21:22;11.00;;;5.63;;
6537;SDS011;3302;52.508;13.454;2023-07-02T14:23:48;9.97;;;5.67;;
6537;SDS011;3302;52.508;13.454;2023-07-02T14:26:14;8.47;;;5.07;;
6537;SDS011;3302;52.508;13.454;2023-07-02T14:28:40;9.47;;;5.70;;
6537;SDS011;3302;52.508;13.454;2023-07-02T14:31:06;9.03;;;5.97;;
6537;SDS011;3302;52.508;13.454;2023-07-02T14:33:33;9.83;;;5.70;;
6537;SDS011;3302;52.508;13.454;2023-07-02T14:36:01;10.10;;;5.70;;
6537;SDS011;3302;52.508;13.454;2023-07-02T14:38:27;6.23;;;4.57;;
6537;SDS011;3302;52.508;13.454;2023-07-02T14:40:54;8.13;;;4.80;;
6537;SDS011;3302;52.508;13.454;2023-07-02T14:43:22;8.77;;;4.87;;
6537;SDS011;3302;52.508;13.454;2023-07-02T14:45:50;9.87;;;5.13;;
6537;SDS011;3302;52.508;13.454;2023-07-02T14:48:18;9.63;;;5.40;;
6537;SDS011;3302;52.508;13.454;2023-07-02T14:50:44;11.03;;;5.50;;
6537;SDS011;3302;52.508;13.454;2023-07-02T14:53:13;8.63;;;5.27;;
6537;SDS011;3302;52.508;13.454;2023-07-02T14:55:40;11.63;;;4.97;;
6537;SDS011;3302;52.508;13.454;2023-07-02T14:58:06;9.27;;;4.97;;
6537;SDS011;3302;52.508;13.454;2023-07-02T15:00:32;7.77;;;4.97;;
6537;SDS011;3302;52.508;13.454;2023-07-02T15:02:58;7.73;;;5.30;;
6537;SDS011;3302;52.508;13.454;2023-07-02T15:05:24;9.37;;;5.17;;
6537;SDS011;3302;52.508;13.454;2023-07-02T15:07:50;9.63;;;5.70;;
6537;SDS011;3302;52.508;13.454;2023-07-02T15:10:17;8.07;;;5.30;;
6537;SDS011;3302;52.508;13.454;2023-07-02T15:12:43;7.53;;;5.07;;
6537;SDS011;3302;52.508;13.454;2023-07-02T15:15:09;9.10;;;5.07;;
6537;SDS011;3302;52.508;13.454;2023-07-02T15:17:36;9.63;;;4.93;;